createdAt,value
2017-06-24T00:00:35.065Z,0
2017-06-24T00:01:15.607Z,0
2017-06-24T00:01:56.148Z,0
2017-06-24T00:02:36.693Z,0
2017-06-24T00:03:17.226Z,0
2017-06-24T00:03:57.747Z,0
2017-06-24T00:04:38.283Z,0
2017-06-24T00:05:18.822Z,0
2017-06-24T00:05:59.360Z,0
2017-06-24T00:06:39.906Z,0
2017-06-24T00:07:20.450Z,0
2017-06-24T00:08:00.984Z,0
2017-06-24T00:08:41.528Z,0
2017-06-24T00:09:22.065Z,0
2017-06-24T00:10:02.600Z,0
2017-06-24T00:10:43.138Z,0
2017-06-24T00:11:23.674Z,0
2017-06-24T00:12:04.219Z,0
2017-06-24T00:12:44.771Z,0
2017-06-24T00:13:25.319Z,0
2017-06-24T00:14:05.862Z,0
2017-06-24T00:14:46.386Z,0
2017-06-24T00:15:26.926Z,0
2017-06-24T00:16:07.466Z,0
2017-06-24T00:16:48.003Z,0
2017-06-24T00:17:28.544Z,0
2017-06-24T00:18:09.149Z,0
2017-06-24T00:18:49.651Z,0
2017-06-24T00:19:30.179Z,0
2017-06-24T00:20:10.732Z,0
2017-06-24T00:20:51.275Z,0
2017-06-24T00:21:31.822Z,0
2017-06-24T00:22:12.354Z,0
2017-06-24T00:22:52.903Z,0
2017-06-24T00:23:33.466Z,0
2017-06-24T00:24:14.008Z,0
2017-06-24T00:24:54.558Z,0
2017-06-24T00:25:35.098Z,0
2017-06-24T00:26:15.661Z,0
2017-06-24T00:26:56.166Z,0
2017-06-24T00:27:36.707Z,0
2017-06-24T00:28:17.252Z,0
2017-06-24T00:28:57.801Z,0
2017-06-24T00:29:38.337Z,0
2017-06-24T00:30:18.879Z,0
2017-06-24T00:30:59.404Z,0
2017-06-24T00:31:39.940Z,0
2017-06-24T00:32:20.463Z,0
2017-06-24T00:33:00.997Z,0
2017-06-24T00:33:41.541Z,0
2017-06-24T00:34:22.067Z,0
2017-06-24T00:35:02.630Z,0
2017-06-24T00:35:43.175Z,0
2017-06-24T00:36:23.708Z,0
2017-06-24T00:37:04.239Z,0
2017-06-24T00:37:44.779Z,0
2017-06-24T00:38:25.318Z,0
2017-06-24T00:39:05.861Z,0
2017-06-24T00:39:46.404Z,0
2017-06-24T00:40:26.949Z,0
2017-06-24T00:41:07.489Z,0
2017-06-24T00:41:48.028Z,0
2017-06-24T00:42:28.579Z,0
2017-06-24T00:43:09.120Z,0
2017-06-24T00:43:49.667Z,0
2017-06-24T00:44:30.188Z,0
2017-06-24T00:45:10.724Z,0
2017-06-24T00:45:51.263Z,0
2017-06-24T00:46:31.819Z,0
2017-06-24T00:47:12.362Z,0
2017-06-24T00:47:52.903Z,0
2017-06-24T00:48:33.448Z,0
2017-06-24T00:49:14.018Z,0
2017-06-24T00:49:54.558Z,0
2017-06-24T00:50:35.080Z,0
2017-06-24T00:51:15.604Z,0
2017-06-24T00:51:56.146Z,0
2017-06-24T00:52:36.686Z,0
2017-06-24T00:53:17.222Z,0
2017-06-24T00:53:57.762Z,0
2017-06-24T00:54:38.304Z,0
2017-06-24T00:55:18.851Z,0
2017-06-24T00:55:59.394Z,0
2017-06-24T00:56:39.920Z,0
2017-06-24T00:57:20.450Z,0
2017-06-24T00:58:00.989Z,0
2017-06-24T00:58:41.528Z,0
2017-06-24T00:59:22.064Z,0
2017-06-24T01:00:02.590Z,0
2017-06-24T01:00:43.130Z,0
2017-06-24T01:01:23.670Z,0
2017-06-24T01:02:04.203Z,0
2017-06-24T01:02:44.742Z,0
2017-06-24T01:03:25.274Z,0
2017-06-24T01:04:05.809Z,0
2017-06-24T01:04:46.339Z,0
2017-06-24T01:05:26.868Z,0
2017-06-24T01:06:07.404Z,0
2017-06-24T01:06:47.942Z,0
2017-06-24T01:07:28.482Z,0
2017-06-24T01:08:09.030Z,0
2017-06-24T01:08:49.577Z,0
2017-06-24T01:09:30.117Z,0
2017-06-24T01:10:10.653Z,0
2017-06-24T01:10:51.192Z,0
2017-06-24T01:11:31.732Z,0
2017-06-24T01:12:12.270Z,0
2017-06-24T01:12:52.815Z,0
2017-06-24T01:13:33.351Z,0
2017-06-24T01:14:13.891Z,0
2017-06-24T01:14:54.439Z,0
2017-06-24T01:15:34.980Z,0
2017-06-24T01:16:15.530Z,0
2017-06-24T01:16:56.062Z,0
2017-06-24T01:17:36.599Z,0
2017-06-24T01:18:17.138Z,0
2017-06-24T01:18:57.697Z,0
2017-06-24T01:19:38.213Z,0
2017-06-24T01:20:18.781Z,0
2017-06-24T01:20:59.318Z,0
2017-06-24T01:21:39.861Z,0
2017-06-24T01:22:20.402Z,0
2017-06-24T01:23:00.943Z,0
2017-06-24T01:23:41.468Z,0
2017-06-24T01:24:22.011Z,0
2017-06-24T01:25:02.556Z,0
2017-06-24T01:25:43.092Z,0
2017-06-24T01:26:23.615Z,0
2017-06-24T01:27:04.165Z,0
2017-06-24T01:27:44.703Z,0
2017-06-24T01:28:25.243Z,0
2017-06-24T01:29:05.784Z,0
2017-06-24T01:29:46.321Z,0
2017-06-24T01:30:26.851Z,0
2017-06-24T01:31:07.379Z,0
2017-06-24T01:31:47.925Z,0
2017-06-24T01:32:28.453Z,0
2017-06-24T01:33:09.000Z,0
2017-06-24T01:33:49.548Z,0
2017-06-24T01:34:30.089Z,0
2017-06-24T01:35:10.625Z,0
2017-06-24T01:35:51.163Z,0
2017-06-24T01:36:31.685Z,0
2017-06-24T01:37:12.224Z,0
2017-06-24T01:37:52.765Z,0
2017-06-24T01:38:33.306Z,0
2017-06-24T01:39:13.854Z,0
2017-06-24T01:39:54.394Z,0
2017-06-24T01:40:34.925Z,0
2017-06-24T01:41:15.468Z,0
2017-06-24T01:41:56.011Z,0
2017-06-24T01:42:36.538Z,0
2017-06-24T01:43:17.079Z,0
2017-06-24T01:43:57.619Z,0
2017-06-24T01:44:38.163Z,0
2017-06-24T01:45:18.711Z,0
2017-06-24T01:45:59.246Z,0
2017-06-24T01:46:39.791Z,0
2017-06-24T01:47:20.335Z,0
2017-06-24T01:48:00.877Z,0
2017-06-24T01:48:41.407Z,0
2017-06-24T01:49:21.945Z,0
2017-06-24T01:50:02.485Z,0
2017-06-24T01:50:43.026Z,0
2017-06-24T01:51:23.567Z,0
2017-06-24T01:52:04.118Z,0
2017-06-24T01:52:44.657Z,0
2017-06-24T01:53:25.192Z,0
2017-06-24T01:54:05.737Z,0
2017-06-24T01:54:46.283Z,0
2017-06-24T01:55:26.820Z,0
2017-06-24T01:56:07.355Z,0
2017-06-24T01:56:47.893Z,0
2017-06-24T01:57:28.433Z,0
2017-06-24T01:58:08.975Z,0
2017-06-24T01:58:49.522Z,0
2017-06-24T01:59:30.061Z,0
2017-06-24T02:00:10.598Z,0
2017-06-24T02:00:51.140Z,0
2017-06-24T02:01:31.670Z,0
2017-06-24T02:02:12.207Z,0
2017-06-24T02:02:52.747Z,0
2017-06-24T02:03:33.290Z,0
2017-06-24T02:04:13.830Z,0
2017-06-24T02:04:54.377Z,0
2017-06-24T02:05:34.922Z,0
2017-06-24T02:06:15.457Z,0
2017-06-24T02:06:56.000Z,0
2017-06-24T02:07:36.527Z,0
2017-06-24T02:08:17.044Z,0
2017-06-24T02:08:57.596Z,0
2017-06-24T02:09:38.136Z,0
2017-06-24T02:10:18.678Z,0
2017-06-24T02:10:59.210Z,0
2017-06-24T02:11:39.760Z,0
2017-06-24T02:12:20.278Z,0
2017-06-24T02:13:00.814Z,0
2017-06-24T02:13:41.359Z,0
2017-06-24T02:14:21.896Z,0
2017-06-24T02:15:02.439Z,0
2017-06-24T02:15:42.979Z,0
2017-06-24T02:16:23.519Z,0
2017-06-24T02:17:04.056Z,0
2017-06-24T02:17:44.584Z,0
2017-06-24T02:18:25.126Z,0
2017-06-24T02:19:05.666Z,0
2017-06-24T02:19:46.204Z,0
2017-06-24T02:20:26.747Z,0
2017-06-24T02:21:07.290Z,0
2017-06-24T02:21:47.833Z,0
2017-06-24T02:22:28.374Z,0
2017-06-24T02:23:08.912Z,0
2017-06-24T02:23:49.452Z,0
2017-06-24T02:24:29.979Z,0
2017-06-24T02:25:10.518Z,0
2017-06-24T02:25:51.058Z,0
2017-06-24T02:26:31.600Z,0
2017-06-24T02:27:12.141Z,0
2017-06-24T02:27:52.680Z,0
2017-06-24T02:28:33.218Z,0
2017-06-24T02:29:13.779Z,0
2017-06-24T02:29:54.312Z,0
2017-06-24T02:30:34.832Z,0
2017-06-24T02:31:15.376Z,0
2017-06-24T02:31:55.915Z,0
2017-06-24T02:32:36.458Z,0
2017-06-24T02:33:16.994Z,0
2017-06-24T02:33:57.525Z,0
2017-06-24T02:34:38.065Z,0
2017-06-24T02:35:18.603Z,0
2017-06-24T02:35:59.128Z,0
2017-06-24T02:36:39.669Z,0
2017-06-24T02:37:20.209Z,0
2017-06-24T02:38:00.761Z,0
2017-06-24T02:38:41.302Z,0
2017-06-24T02:39:21.847Z,0
2017-06-24T02:40:02.382Z,0
2017-06-24T02:40:42.928Z,0
2017-06-24T02:41:23.463Z,0
2017-06-24T02:42:03.999Z,0
2017-06-24T02:42:44.537Z,0
2017-06-24T02:43:25.077Z,0
2017-06-24T02:44:05.618Z,0
2017-06-24T02:44:46.160Z,0
2017-06-24T02:45:26.704Z,0
2017-06-24T02:46:07.248Z,0
2017-06-24T02:46:47.788Z,0
2017-06-24T02:47:28.334Z,4
2017-06-24T02:48:08.876Z,4
2017-06-24T02:48:49.416Z,4
2017-06-24T02:49:29.963Z,4
2017-06-24T02:50:10.494Z,4
2017-06-24T02:50:51.035Z,4
2017-06-24T02:51:31.577Z,4
2017-06-24T02:52:12.123Z,4
2017-06-24T02:52:52.662Z,4
2017-06-24T02:53:33.205Z,4
2017-06-24T02:54:13.742Z,4
2017-06-24T02:54:54.291Z,8
2017-06-24T02:55:34.833Z,8
2017-06-24T02:56:15.373Z,4
2017-06-24T02:56:55.900Z,8
2017-06-24T02:57:36.437Z,8
2017-06-24T02:58:16.983Z,12
2017-06-24T02:58:57.524Z,8
2017-06-24T02:59:38.058Z,12
2017-06-24T03:00:18.597Z,12
2017-06-24T03:00:59.147Z,12
2017-06-24T03:01:39.677Z,12
2017-06-24T03:02:20.301Z,16
2017-06-24T03:03:00.842Z,16
2017-06-24T03:03:41.372Z,20
2017-06-24T03:04:21.912Z,20
2017-06-24T03:05:02.453Z,20
2017-06-24T03:05:43.002Z,20
2017-06-24T03:06:23.525Z,24
2017-06-24T03:07:04.071Z,28
2017-06-24T03:07:44.604Z,28
2017-06-24T03:08:25.145Z,28
2017-06-24T03:09:05.694Z,32
2017-06-24T03:09:46.235Z,32
2017-06-24T03:10:26.770Z,36
2017-06-24T03:11:07.308Z,40
2017-06-24T03:11:47.848Z,44
2017-06-24T03:12:28.394Z,48
2017-06-24T03:13:08.930Z,48
2017-06-24T03:13:49.470Z,52
2017-06-24T03:14:30.011Z,56
2017-06-24T03:15:10.551Z,60
2017-06-24T03:15:51.096Z,64
2017-06-24T03:16:31.634Z,68
2017-06-24T03:17:12.175Z,72
2017-06-24T03:17:52.717Z,76
2017-06-24T03:18:33.253Z,80
2017-06-24T03:19:13.794Z,84
2017-06-24T03:19:54.328Z,88
2017-06-24T03:20:34.867Z,92
2017-06-24T03:21:15.410Z,100
2017-06-24T03:21:55.957Z,104
2017-06-24T03:22:36.519Z,112
2017-06-24T03:23:17.061Z,116
2017-06-24T03:23:57.598Z,124
2017-06-24T03:24:38.147Z,128
2017-06-24T03:25:18.677Z,136
2017-06-24T03:25:59.220Z,140
2017-06-24T03:26:39.742Z,152
2017-06-24T03:27:20.284Z,156
2017-06-24T03:28:00.822Z,160
2017-06-24T03:28:41.360Z,168
2017-06-24T03:29:21.890Z,176
2017-06-24T03:30:02.430Z,180
2017-06-24T03:30:42.982Z,188
2017-06-24T03:31:23.510Z,196
2017-06-24T03:32:04.036Z,204
2017-06-24T03:32:44.576Z,208
2017-06-24T03:33:25.120Z,220
2017-06-24T03:34:05.669Z,224
2017-06-24T03:34:46.207Z,232
2017-06-24T03:35:26.735Z,240
2017-06-24T03:36:07.266Z,248
2017-06-24T03:36:47.800Z,252
2017-06-24T03:37:28.331Z,260
2017-06-24T03:38:08.869Z,272
2017-06-24T03:38:49.409Z,276
2017-06-24T03:39:29.961Z,284
2017-06-24T03:40:10.493Z,292
2017-06-24T03:40:51.036Z,300
2017-06-24T03:41:31.586Z,308
2017-06-24T03:42:12.121Z,316
2017-06-24T03:42:52.657Z,320
2017-06-24T03:43:33.196Z,332
2017-06-24T03:44:13.737Z,340
2017-06-24T03:44:54.277Z,344
2017-06-24T03:45:34.822Z,352
2017-06-24T03:46:15.367Z,360
2017-06-24T03:46:55.897Z,368
2017-06-24T03:47:36.437Z,376
2017-06-24T03:48:16.973Z,384
2017-06-24T03:48:57.505Z,388
2017-06-24T03:49:38.038Z,396
2017-06-24T03:50:18.584Z,404
2017-06-24T03:50:59.126Z,412
2017-06-24T03:51:39.668Z,424
2017-06-24T03:52:20.200Z,436
2017-06-24T03:53:00.748Z,452
2017-06-24T03:53:41.288Z,476
2017-06-24T03:54:21.829Z,496
2017-06-24T03:55:02.371Z,528
2017-06-24T03:55:42.913Z,528
2017-06-24T03:56:23.459Z,536
2017-06-24T03:57:03.998Z,536
2017-06-24T03:57:44.541Z,528
2017-06-24T03:58:25.090Z,552
2017-06-24T03:59:05.618Z,580
2017-06-24T03:59:46.156Z,596
2017-06-24T04:00:26.702Z,604
2017-06-24T04:01:07.236Z,612
2017-06-24T04:01:47.777Z,632
2017-06-24T04:02:28.324Z,656
2017-06-24T04:03:08.867Z,668
2017-06-24T04:03:49.407Z,648
2017-06-24T04:04:29.949Z,660
2017-06-24T04:05:10.485Z,656
2017-06-24T04:05:51.031Z,644
2017-06-24T04:06:31.550Z,632
2017-06-24T04:07:12.093Z,644
2017-06-24T04:07:52.642Z,712
2017-06-24T04:08:33.158Z,772
2017-06-24T04:09:13.699Z,836
2017-06-24T04:09:54.240Z,872
2017-06-24T04:10:34.768Z,832
2017-06-24T04:11:15.293Z,864
2017-06-24T04:11:55.827Z,844
2017-06-24T04:12:36.365Z,848
2017-06-24T04:13:16.889Z,824
2017-06-24T04:13:57.431Z,888
2017-06-24T04:14:37.980Z,880
2017-06-24T04:15:18.520Z,860
2017-06-24T04:15:59.074Z,876
2017-06-24T04:16:39.601Z,908
2017-06-24T04:17:20.140Z,912
2017-06-24T04:18:00.679Z,928
2017-06-24T04:18:41.219Z,888
2017-06-24T04:19:21.759Z,844
2017-06-24T04:20:02.298Z,828
2017-06-24T04:20:42.839Z,840
2017-06-24T04:21:23.396Z,868
2017-06-24T04:22:03.941Z,840
2017-06-24T04:22:44.482Z,800
2017-06-24T04:23:25.029Z,824
2017-06-24T04:24:05.578Z,840
2017-06-24T04:24:46.231Z,832
2017-06-24T04:25:26.773Z,860
2017-06-24T04:26:07.321Z,964
2017-06-24T04:26:47.849Z,1020
2017-06-24T04:27:28.393Z,1072
2017-06-24T04:28:08.931Z,1092
2017-06-24T04:28:49.477Z,1076
2017-06-24T04:29:30.023Z,1108
2017-06-24T04:30:10.565Z,1116
2017-06-24T04:30:51.113Z,1144
2017-06-24T04:31:31.645Z,1148
2017-06-24T04:32:12.189Z,1108
2017-06-24T04:32:52.735Z,1040
2017-06-24T04:33:33.269Z,1020
2017-06-24T04:34:13.807Z,1028
2017-06-24T04:34:54.341Z,1080
2017-06-24T04:35:34.885Z,1148
2017-06-24T04:36:15.433Z,1200
2017-06-24T04:36:55.978Z,1244
2017-06-24T04:37:36.519Z,1244
2017-06-24T04:38:17.049Z,1280
2017-06-24T04:38:57.595Z,1388
2017-06-24T04:39:38.139Z,1480
2017-06-24T04:40:18.680Z,1456
2017-06-24T04:40:59.216Z,1388
2017-06-24T04:41:39.768Z,1372
2017-06-24T04:42:20.290Z,1444
2017-06-24T04:43:00.840Z,1376
2017-06-24T04:43:41.377Z,1344
2017-06-24T04:44:21.904Z,1344
2017-06-24T04:45:02.437Z,1344
2017-06-24T04:45:42.989Z,1356
2017-06-24T04:46:23.514Z,1372
2017-06-24T04:47:04.051Z,1392
2017-06-24T04:47:44.596Z,1348
2017-06-24T04:48:25.132Z,1312
2017-06-24T04:49:05.683Z,1420
2017-06-24T04:49:46.233Z,1388
2017-06-24T04:50:26.762Z,1412
2017-06-24T04:51:07.305Z,1532
2017-06-24T04:51:47.851Z,1596
2017-06-24T04:52:28.378Z,1736
2017-06-24T04:53:08.939Z,1684
2017-06-24T04:53:49.472Z,1724
2017-06-24T04:54:30.006Z,1736
2017-06-24T04:55:10.545Z,1768
2017-06-24T04:55:51.064Z,1708
2017-06-24T04:56:31.605Z,1676
2017-06-24T04:57:12.126Z,1712
2017-06-24T04:57:52.649Z,1764
2017-06-24T04:58:33.169Z,1844
2017-06-24T04:59:13.695Z,1960
2017-06-24T04:59:54.224Z,1920
2017-06-24T05:00:34.757Z,1912
2017-06-24T05:01:15.292Z,1880
2017-06-24T05:01:55.820Z,1848
2017-06-24T05:02:36.368Z,1852
2017-06-24T05:03:16.908Z,1944
2017-06-24T05:03:57.436Z,2036
2017-06-24T05:04:37.954Z,2044
2017-06-24T05:05:18.490Z,2128
2017-06-24T05:05:59.023Z,2108
2017-06-24T05:06:39.549Z,2136
2017-06-24T05:07:20.087Z,2120
2017-06-24T05:08:00.626Z,2076
2017-06-24T05:08:41.162Z,2080
2017-06-24T05:09:21.704Z,2032
2017-06-24T05:10:02.247Z,2004
2017-06-24T05:10:42.774Z,1948
2017-06-24T05:11:23.311Z,1956
2017-06-24T05:12:03.840Z,1860
2017-06-24T05:12:44.363Z,1796
2017-06-24T05:13:24.895Z,1904
2017-06-24T05:14:05.436Z,2148
2017-06-24T05:14:45.977Z,2144
2017-06-24T05:15:26.503Z,2240
2017-06-24T05:16:07.015Z,2160
2017-06-24T05:16:47.558Z,2196
2017-06-24T05:17:28.093Z,2300
2017-06-24T05:18:08.659Z,2248
2017-06-24T05:18:49.209Z,2244
2017-06-24T05:19:29.744Z,2180
2017-06-24T05:20:10.277Z,2096
2017-06-24T05:20:50.809Z,1992
2017-06-24T05:21:31.338Z,1976
2017-06-24T05:22:11.880Z,1936
2017-06-24T05:22:52.413Z,1872
2017-06-24T05:23:33.001Z,1892
2017-06-24T05:24:13.544Z,1972
2017-06-24T05:24:54.081Z,2052
2017-06-24T05:25:34.627Z,2136
2017-06-24T05:26:15.160Z,2264
2017-06-24T05:26:55.671Z,2312
2017-06-24T05:27:36.199Z,2316
2017-06-24T05:28:16.717Z,2452
2017-06-24T05:28:57.239Z,2696
2017-06-24T05:29:37.768Z,2720
2017-06-24T05:30:18.319Z,2764
2017-06-24T05:30:58.855Z,2852
2017-06-24T05:31:39.382Z,2856
2017-06-24T05:32:19.927Z,2924
2017-06-24T05:33:00.460Z,2948
2017-06-24T05:33:40.991Z,2968
2017-06-24T05:34:21.580Z,2996
2017-06-24T05:35:02.098Z,3112
2017-06-24T05:35:42.647Z,3308
2017-06-24T05:36:23.191Z,3464
2017-06-24T05:37:03.727Z,3364
2017-06-24T05:37:44.278Z,3244
2017-06-24T05:38:24.825Z,3376
2017-06-24T05:39:05.358Z,3272
2017-06-24T05:39:45.894Z,3460
2017-06-24T05:40:26.429Z,3548
2017-06-24T05:41:07.035Z,3576
2017-06-24T05:41:47.548Z,3800
2017-06-24T05:42:28.099Z,3700
2017-06-24T05:43:08.643Z,4288
2017-06-24T05:43:49.189Z,3804
2017-06-24T05:44:29.711Z,4336
2017-06-24T05:45:10.261Z,3848
2017-06-24T05:45:50.816Z,4048
2017-06-24T05:46:31.390Z,3932
2017-06-24T05:47:11.845Z,4000
2017-06-24T05:47:52.400Z,4072
2017-06-24T05:48:32.895Z,4024
2017-06-24T05:49:13.413Z,4064
2017-06-24T05:49:53.959Z,4132
2017-06-24T05:50:34.462Z,4140
2017-06-24T05:51:14.959Z,4168
2017-06-24T05:51:55.446Z,4088
2017-06-24T05:52:36.069Z,4040
2017-06-24T05:53:16.815Z,3888
2017-06-24T05:53:57.368Z,3872
2017-06-24T05:54:37.863Z,3948
2017-06-24T05:55:18.364Z,3816
2017-06-24T05:55:58.870Z,3784
2017-06-24T05:56:39.432Z,3888
2017-06-24T05:57:19.917Z,3920
2017-06-24T05:58:00.453Z,3880
2017-06-24T05:58:40.977Z,3860
2017-06-24T05:59:21.498Z,3916
2017-06-24T06:00:01.971Z,3908
2017-06-24T06:00:42.485Z,3996
2017-06-24T06:01:22.994Z,4068
2017-06-24T06:02:04.186Z,4188
2017-06-24T06:02:44.670Z,4316
2017-06-24T06:03:25.187Z,4400
2017-06-24T06:04:05.674Z,4252
2017-06-24T06:04:46.176Z,4312
2017-06-24T06:05:26.674Z,4356
2017-06-24T06:06:07.184Z,4408
2017-06-24T06:06:47.695Z,4404
2017-06-24T06:07:28.189Z,4324
2017-06-24T06:08:08.740Z,4288
2017-06-24T06:08:49.245Z,4284
2017-06-24T06:09:29.781Z,4388
2017-06-24T06:10:10.461Z,4604
2017-06-24T06:10:51.003Z,4548
2017-06-24T06:11:31.473Z,4460
2017-06-24T06:12:12.044Z,4592
2017-06-24T06:12:52.575Z,4468
2017-06-24T06:13:33.084Z,4580
2017-06-24T06:14:13.643Z,4712
2017-06-24T06:14:54.184Z,4876
2017-06-24T06:15:34.727Z,4976
2017-06-24T06:16:15.269Z,5200
2017-06-24T06:16:55.882Z,5080
2017-06-24T06:17:36.505Z,5096
2017-06-24T06:18:17.103Z,5224
2017-06-24T06:18:57.722Z,5128
2017-06-24T06:19:38.252Z,5044
2017-06-24T06:20:18.798Z,5024
2017-06-24T06:20:59.390Z,5368
2017-06-24T06:21:39.927Z,5532
2017-06-24T06:22:20.460Z,5780
2017-06-24T06:23:01.040Z,5792
2017-06-24T06:23:41.573Z,5728
2017-06-24T06:24:22.102Z,5748
2017-06-24T06:25:02.644Z,5780
2017-06-24T06:25:43.177Z,5920
2017-06-24T06:26:23.716Z,5836
2017-06-24T06:27:04.273Z,5696
2017-06-24T06:27:44.808Z,5592
2017-06-24T06:28:25.355Z,5776
2017-06-24T06:29:05.884Z,6008
2017-06-24T06:29:46.412Z,6136
2017-06-24T06:30:26.983Z,6244
2017-06-24T06:31:07.512Z,5968
2017-06-24T06:31:48.040Z,6228
2017-06-24T06:32:28.658Z,6212
2017-06-24T06:33:09.202Z,6316
2017-06-24T06:33:49.750Z,6720
2017-06-24T06:34:30.288Z,6724
2017-06-24T06:35:10.834Z,7012
2017-06-24T06:35:51.382Z,7192
2017-06-24T06:36:31.920Z,7476
2017-06-24T06:37:12.463Z,7668
2017-06-24T06:37:53.026Z,7172
2017-06-24T06:38:33.611Z,7216
2017-06-24T06:39:14.132Z,6980
2017-06-24T06:39:54.664Z,7448
2017-06-24T06:40:35.201Z,7016
2017-06-24T06:41:15.820Z,7680
2017-06-24T06:41:56.379Z,7832
2017-06-24T06:42:36.934Z,7584
2017-06-24T06:43:17.505Z,7312
2017-06-24T06:43:58.041Z,7152
2017-06-24T06:44:38.555Z,7280
2017-06-24T06:45:19.112Z,7728
2017-06-24T06:45:59.662Z,7420
2017-06-24T06:46:40.178Z,7516
2017-06-24T06:47:20.736Z,7596
2017-06-24T06:48:01.279Z,8084
2017-06-24T06:48:41.876Z,7860
2017-06-24T06:49:22.447Z,8552
2017-06-24T06:50:02.988Z,7944
2017-06-24T06:50:43.539Z,8376
2017-06-24T06:51:24.089Z,8560
2017-06-24T06:52:04.641Z,8004
2017-06-24T06:52:45.177Z,7592
2017-06-24T06:53:25.733Z,7580
2017-06-24T06:54:06.270Z,8528
2017-06-24T06:54:46.817Z,8312
2017-06-24T06:55:27.355Z,7716
2017-06-24T06:56:07.903Z,7616
2017-06-24T06:56:48.456Z,7288
2017-06-24T06:57:28.998Z,7332
2017-06-24T06:58:09.552Z,7656
2017-06-24T06:58:50.087Z,7228
2017-06-24T06:59:30.612Z,7696
2017-06-24T07:00:11.149Z,7520
2017-06-24T07:00:51.666Z,7800
2017-06-24T07:01:32.210Z,7740
2017-06-24T07:02:12.750Z,7824
2017-06-24T07:02:53.281Z,7556
2017-06-24T07:03:33.811Z,8092
2017-06-24T07:04:14.363Z,7540
2017-06-24T07:04:54.903Z,7476
2017-06-24T07:05:35.450Z,7384
2017-06-24T07:06:15.993Z,7476
2017-06-24T07:06:56.544Z,7912
2017-06-24T07:07:37.116Z,7676
2017-06-24T07:08:17.668Z,7728
2017-06-24T07:08:58.215Z,7628
2017-06-24T07:09:38.790Z,7676
2017-06-24T07:10:19.393Z,7280
2017-06-24T07:10:59.931Z,7140
2017-06-24T07:11:40.465Z,8356
2017-06-24T07:12:20.990Z,8776
2017-06-24T07:13:01.526Z,7872
2017-06-24T07:13:42.053Z,7476
2017-06-24T07:14:22.600Z,7240
2017-06-24T07:15:03.141Z,7048
2017-06-24T07:15:43.689Z,7344
2017-06-24T07:16:24.236Z,8076
2017-06-24T07:17:04.775Z,8484
2017-06-24T07:17:45.317Z,8452
2017-06-24T07:18:25.867Z,9184
2017-06-24T07:19:06.445Z,9152
2017-06-24T07:19:46.989Z,9968
2017-06-24T07:20:27.543Z,9404
2017-06-24T07:21:08.096Z,9048
2017-06-24T07:21:48.622Z,9164
2017-06-24T07:22:29.153Z,9440
2017-06-24T07:23:09.720Z,9272
2017-06-24T07:23:50.261Z,9628
2017-06-24T07:24:30.805Z,9628
2017-06-24T07:25:11.340Z,8640
2017-06-24T07:25:51.877Z,8724
2017-06-24T07:26:32.417Z,9072
2017-06-24T07:27:12.957Z,9088
2017-06-24T07:27:53.544Z,8660
2017-06-24T07:28:34.030Z,8564
2017-06-24T07:29:14.577Z,8104
2017-06-24T07:29:55.360Z,8624
2017-06-24T07:30:35.872Z,9056
2017-06-24T07:31:16.400Z,8616
2017-06-24T07:31:56.942Z,9848
2017-06-24T07:32:37.482Z,10556
2017-06-24T07:33:18.026Z,9420
2017-06-24T07:33:58.627Z,9144
2017-06-24T07:34:39.149Z,8764
2017-06-24T07:35:19.700Z,8932
2017-06-24T07:36:00.248Z,8916
2017-06-24T07:36:40.790Z,8604
2017-06-24T07:37:21.334Z,8948
2017-06-24T07:38:01.882Z,9208
2017-06-24T07:38:42.507Z,9124
2017-06-24T07:39:23.094Z,9836
2017-06-24T07:40:03.619Z,9232
2017-06-24T07:40:44.187Z,8408
2017-06-24T07:41:24.726Z,7892
2017-06-24T07:42:05.266Z,8232
2017-06-24T07:42:45.814Z,8132
2017-06-24T07:43:26.385Z,10764
2017-06-24T07:44:06.908Z,10048
2017-06-24T07:44:47.434Z,9644
2017-06-24T07:45:27.991Z,9668
2017-06-24T07:46:08.512Z,9976
2017-06-24T07:46:49.056Z,11268
2017-06-24T07:47:29.608Z,11244
2017-06-24T07:48:10.136Z,10960
2017-06-24T07:48:50.766Z,10892
2017-06-24T07:49:31.164Z,9604
2017-06-24T07:50:11.712Z,10528
2017-06-24T07:50:52.232Z,9764
2017-06-24T07:51:32.754Z,9496
2017-06-24T07:52:13.303Z,10108
2017-06-24T07:52:53.843Z,10104
2017-06-24T07:53:34.391Z,8152
2017-06-24T07:54:14.914Z,8428
2017-06-24T07:54:55.448Z,7176
2017-06-24T07:55:35.981Z,6640
2017-06-24T07:56:16.599Z,7124
2017-06-24T07:56:57.175Z,8716
2017-06-24T07:57:37.690Z,9024
2017-06-24T07:58:18.191Z,9036
2017-06-24T07:58:58.741Z,8632
2017-06-24T07:59:39.285Z,6892
2017-06-24T08:00:19.825Z,8248
2017-06-24T08:01:00.381Z,8952
2017-06-24T08:01:40.920Z,9352
2017-06-24T08:02:21.486Z,9616
2017-06-24T08:03:02.054Z,9604
2017-06-24T08:03:42.580Z,11956
2017-06-24T08:04:23.109Z,10716
2017-06-24T08:05:03.637Z,11156
2017-06-24T08:05:44.185Z,9648
2017-06-24T08:06:24.714Z,7424
2017-06-24T08:07:05.238Z,7672
2017-06-24T08:07:45.785Z,11396
2017-06-24T08:08:26.335Z,12724
2017-06-24T08:09:06.892Z,15428
2017-06-24T08:09:47.433Z,13548
2017-06-24T08:10:27.971Z,10212
2017-06-24T08:11:08.510Z,43808
2017-06-24T08:11:49.061Z,10868
2017-06-24T08:12:29.609Z,7032
2017-06-24T08:13:10.162Z,15332
2017-06-24T08:13:50.703Z,11340
2017-06-24T08:14:31.270Z,73856
2017-06-24T08:15:11.817Z,50912
2017-06-24T08:15:52.358Z,7488
2017-06-24T08:16:32.907Z,45152
2017-06-24T08:17:13.449Z,23232
2017-06-24T08:17:53.998Z,8328
2017-06-24T08:18:34.538Z,7288
2017-06-24T08:19:15.095Z,10248
2017-06-24T08:19:55.600Z,73440
2017-06-24T08:20:36.149Z,74944
2017-06-24T08:21:16.705Z,74624
2017-06-24T08:21:57.227Z,72672
2017-06-24T08:22:37.751Z,12000
2017-06-24T08:23:18.270Z,20992
2017-06-24T08:23:58.809Z,22368
2017-06-24T08:24:39.347Z,12948
2017-06-24T08:25:19.866Z,6684
2017-06-24T08:26:00.381Z,7608
2017-06-24T08:26:40.909Z,6364
2017-06-24T08:27:21.424Z,70304
2017-06-24T08:28:01.968Z,31232
2017-06-24T08:28:42.507Z,70976
2017-06-24T08:29:23.059Z,74080
2017-06-24T08:30:03.561Z,80224
2017-06-24T08:30:44.101Z,77920
2017-06-24T08:31:24.668Z,77312
2017-06-24T08:32:05.213Z,37952
2017-06-24T08:32:45.763Z,37312
2017-06-24T08:33:26.317Z,41728
2017-06-24T08:34:06.854Z,12888
2017-06-24T08:34:47.390Z,11160
2017-06-24T08:35:27.925Z,9444
2017-06-24T08:36:08.472Z,9212
2017-06-24T08:36:49.019Z,8388
2017-06-24T08:37:29.566Z,10628
2017-06-24T08:38:10.114Z,7324
2017-06-24T08:38:50.658Z,7272
2017-06-24T08:39:31.207Z,14464
2017-06-24T08:40:11.752Z,8168
2017-06-24T08:40:52.300Z,7124
2017-06-24T08:41:32.855Z,23168
2017-06-24T08:42:13.402Z,64160
2017-06-24T08:42:53.992Z,77728
2017-06-24T08:43:34.543Z,80864
2017-06-24T08:44:15.078Z,44640
2017-06-24T08:44:55.622Z,51232
2017-06-24T08:45:36.165Z,12204
2017-06-24T08:46:16.708Z,15776
2017-06-24T08:46:57.257Z,56224
2017-06-24T08:47:37.808Z,15636
2017-06-24T08:48:18.354Z,10144
2017-06-24T08:48:58.898Z,10968
2017-06-24T08:49:39.450Z,11040
2017-06-24T08:50:19.995Z,11456
2017-06-24T08:51:00.538Z,11768
2017-06-24T08:51:41.101Z,10824
2017-06-24T08:52:21.620Z,13188
2017-06-24T08:53:02.167Z,12672
2017-06-24T08:53:43.856Z,7896
2017-06-24T08:54:24.899Z,12424
2017-06-24T08:55:05.424Z,13488
2017-06-24T08:55:45.944Z,14180
2017-06-24T08:56:26.496Z,13580
2017-06-24T08:57:07.022Z,14960
2017-06-24T08:57:47.560Z,13364
2017-06-24T08:58:28.100Z,11808
2017-06-24T08:59:08.631Z,11832
2017-06-24T08:59:49.167Z,9772
2017-06-24T09:00:29.709Z,10488
2017-06-24T09:01:10.262Z,10080
2017-06-24T09:01:50.807Z,12632
2017-06-24T09:02:31.353Z,10604
2017-06-24T09:03:11.906Z,11624
2017-06-24T09:03:52.453Z,9764
2017-06-24T09:04:32.989Z,12204
2017-06-24T09:05:13.530Z,13836
2017-06-24T09:05:54.083Z,18016
2017-06-24T09:06:34.628Z,15788
2017-06-24T09:07:15.167Z,13388
2017-06-24T09:07:55.706Z,12400
2017-06-24T09:08:36.249Z,10768
2017-06-24T09:09:16.794Z,12336
2017-06-24T09:09:57.337Z,11824
2017-06-24T09:10:37.883Z,12116
2017-06-24T09:11:18.435Z,11184
2017-06-24T09:11:58.953Z,8564
2017-06-24T09:12:39.464Z,7608
2017-06-24T09:13:20.012Z,8920
2017-06-24T09:14:00.602Z,13488
2017-06-24T09:14:41.143Z,15892
2017-06-24T09:15:21.687Z,9600
2017-06-24T09:16:02.220Z,9920
2017-06-24T09:16:42.767Z,9508
2017-06-24T09:17:23.294Z,8504
2017-06-24T09:18:03.835Z,8336
2017-06-24T09:18:44.381Z,8008
2017-06-24T09:19:24.930Z,8908